Time,TemperatureF,DewpointF,PressureIn,WindDirection,WindDirectionDegrees,WindSpeedMPH,WindSpeedGustMPH,Humidity,HourlyPrecipIn,Conditions,Clouds,dailyrainin,SoftwareType,DateUTC
2013-01-10 00:33:00,37.0,-99.9,-100.00,WSW,250,9.0,9.0,-999,-99.99,,,-99.99,,2013-01-10 08:33:00,
2013-01-10 00:42:00,37.0,-99.9,-100.00,WSW,250,9.0,9.0,-999,-99.99,,,-99.99,,2013-01-10 08:42:00,
2013-01-10 00:53:00,37.0,-99.9,-100.00,WSW,250,9.0,9.0,-999,-99.99,,,-99.99,,2013-01-10 08:53:00,
2013-01-10 01:20:00,37.0,-99.9,-100.00,WNW,294,8.0,11.0,-999,-99.99,,,-99.99,,2013-01-10 09:20:00,
2013-01-10 01:22:00,37.0,-99.9,-100.00,WSW,238,6.0,11.0,-999,-99.99,,,-99.99,,2013-01-10 09:22:00,
2013-01-10 01:32:00,37.0,-99.9,-100.00,West,274,2.0,5.0,-999,-99.99,,,-99.99,,2013-01-10 09:32:00,
2013-01-10 01:43:00,37.0,-99.9,-100.00,West,274,2.0,5.0,-999,-99.99,,,-99.99,,2013-01-10 09:43:00,
2013-01-10 01:53:00,37.0,-99.9,-100.00,West,274,2.0,5.0,-999,-99.99,,,-99.99,,2013-01-10 09:53:00,
2013-01-10 02:03:00,37.0,-99.9,-100.00,WNW,294,8.0,11.0,-999,-99.99,,,-99.99,,2013-01-10 10:03:00,
2013-01-10 02:12:00,37.0,-99.9,-100.00,WNW,294,8.0,11.0,-999,-99.99,,,-99.99,,2013-01-10 10:12:00,
2013-01-10 02:33:00,37.0,-99.9,-100.00,WNW,284,4.0,8.0,-999,-99.99,,,-99.99,,2013-01-10 10:33:00,
2013-01-10 02:43:00,37.0,-99.9,-100.00,WNW,284,4.0,8.0,-999,-99.99,,,-99.99,,2013-01-10 10:43:00,
2013-01-10 02:53:00,37.0,-99.9,-100.00,WNW,284,4.0,8.0,-999,-99.99,,,-99.99,,2013-01-10 10:53:00,
2013-01-10 03:23:00,37.0,-99.9,-100.00,West,271,7.0,11.0,-999,-99.99,,,-99.99,,2013-01-10 11:23:00,
2013-01-10 03:33:00,38.0,-99.9,-100.00,WNW,285,9.0,10.0,-999,-99.99,,,-99.99,,2013-01-10 11:33:00,
2013-01-10 03:43:00,38.0,-99.9,-100.00,WNW,285,9.0,10.0,-999,-99.99,,,-99.99,,2013-01-10 11:43:00,
2013-01-10 03:53:00,38.0,-99.9,-100.00,WNW,285,9.0,10.0,-999,-99.99,,,-99.99,,2013-01-10 11:53:00,
2013-01-10 04:03:00,38.0,-99.9,-100.00,West,272,12.0,16.0,-999,-99.99,,,-99.99,,2013-01-10 12:03:00,
2013-01-10 04:10:00,38.0,-99.9,-100.00,WNW,289,3.0,10.0,-999,-99.99,,,-99.99,,2013-01-10 12:10:00,
2013-01-10 04:12:00,38.0,-99.9,-100.00,West,272,12.0,16.0,-999,-99.99,,,-99.99,,2013-01-10 12:12:00,
2013-01-10 04:33:00,37.0,-99.9,-100.00,NW,307,3.0,6.0,-999,-99.99,,,-99.99,,2013-01-10 12:33:00,
2013-01-10 04:43:00,37.0,-99.9,-100.00,NW,307,3.0,6.0,-999,-99.99,,,-99.99,,2013-01-10 12:43:00,
2013-01-10 04:53:00,38.0,-99.9,-100.00,WNW,289,3.0,10.0,-999,-99.99,,,-99.99,,2013-01-10 12:53:00,
2013-01-10 05:02:00,38.0,-99.9,-100.00,WNW,289,3.0,10.0,-999,-99.99,,,-99.99,,2013-01-10 13:02:00,
2013-01-10 05:22:00,37.0,-99.9,-100.00,West,262,13.0,14.0,-999,-99.99,,,-99.99,,2013-01-10 13:22:00,
2013-01-10 05:33:00,37.0,-99.9,-100.00,West,277,9.0,14.0,-999,-99.99,,,-99.99,,2013-01-10 13:33:00,
2013-01-10 05:42:00,37.0,-99.9,-100.00,West,277,9.0,14.0,-999,-99.99,,,-99.99,,2013-01-10 13:42:00,
2013-01-10 05:53:00,37.0,-99.9,-100.00,West,277,9.0,14.0,-999,-99.99,,,-99.99,,2013-01-10 13:53:00,
2013-01-10 06:03:00,37.0,-99.9,-100.00,WNW,301,6.0,12.0,-999,-99.99,,,-99.99,,2013-01-10 14:03:00,
2013-01-10 06:12:00,37.0,-99.9,-100.00,WNW,301,6.0,12.0,-999,-99.99,,,-99.99,,2013-01-10 14:12:00,
2013-01-10 06:20:00,37.0,-99.9,-100.00,WNW,283,9.0,19.0,-999,-99.99,,,-99.99,,2013-01-10 14:20:00,
2013-01-10 06:33:00,36.0,-99.9,-100.00,West,271,9.0,14.0,-999,-99.99,,,-99.99,,2013-01-10 14:33:00,
2013-01-10 06:44:00,36.0,-99.9,-100.00,West,271,9.0,14.0,-999,-99.99,,,-99.99,,2013-01-10 14:44:00,
2013-01-10 06:53:00,38.0,-99.9,-100.00,WNW,284,6.0,12.0,-999,-99.99,,,-99.99,,2013-01-10 14:53:00,
2013-01-10 07:03:00,37.0,-99.9,-100.00,WNW,283,9.0,19.0,-999,-99.99,,,-99.99,,2013-01-10 15:03:00,
2013-01-10 07:12:00,37.0,-99.9,-100.00,WNW,283,9.0,19.0,-999,-99.99,,,-99.99,,2013-01-10 15:12:00,
2013-01-10 07:33:00,38.0,-99.9,-100.00,WNW,283,13.0,18.0,-999,-99.99,,,-99.99,,2013-01-10 15:33:00,
2013-01-10 07:43:00,38.0,-99.9,-100.00,WNW,283,13.0,18.0,-999,-99.99,,,-99.99,,2013-01-10 15:43:00,
2013-01-10 07:53:00,36.0,-99.9,-100.00,West,271,3.0,19.0,-999,-99.99,,,-99.99,,2013-01-10 15:53:00,
2013-01-10 08:03:00,36.0,-99.9,-100.00,West,271,3.0,19.0,-999,-99.99,,,-99.99,,2013-01-10 16:03:00,
2013-01-10 08:10:00,37.0,-99.9,-100.00,WSW,253,10.0,15.0,-999,-99.99,,,-99.99,,2013-01-10 16:10:00,
2013-01-10 08:33:00,37.0,-99.9,-100.00,WSW,241,6.0,17.0,-999,-99.99,,,-99.99,,2013-01-10 16:33:00,
2013-01-10 08:43:00,37.0,-99.9,-100.00,WSW,241,6.0,17.0,-999,-99.99,,,-99.99,,2013-01-10 16:43:00,
2013-01-10 08:53:00,37.0,-99.9,-100.00,WSW,253,10.0,15.0,-999,-99.99,,,-99.99,,2013-01-10 16:53:00,
2013-01-10 09:03:00,37.0,-99.9,-100.00,WSW,253,10.0,15.0,-999,-99.99,,,-99.99,,2013-01-10 17:03:00,
2013-01-10 09:33:00,39.0,-99.9,-100.00,West,271,6.0,13.0,-999,-99.99,,,-99.99,,2013-01-10 17:33:00,
2013-01-10 09:43:00,39.0,-99.9,-100.00,West,271,6.0,13.0,-999,-99.99,,,-99.99,,2013-01-10 17:43:00,
2013-01-10 09:54:00,39.0,-99.9,-100.00,West,271,6.0,13.0,-999,-99.99,,,-99.99,,2013-01-10 17:54:00,
2013-01-10 10:04:00,39.0,-99.9,-100.00,West,272,2.0,13.0,-999,-99.99,,,-99.99,,2013-01-10 18:04:00,
2013-01-10 10:13:00,39.0,-99.9,-100.00,West,272,2.0,13.0,-999,-99.99,,,-99.99,,2013-01-10 18:13:00,
2013-01-10 10:20:00,39.0,-99.9,-100.00,West,277,7.0,12.0,-999,-99.99,,,-99.99,,2013-01-10 18:20:00,
2013-01-10 10:23:00,39.0,-99.9,-100.00,West,272,2.0,13.0,-999,-99.99,,,-99.99,,2013-01-10 18:23:00,
2013-01-10 10:33:00,40.0,-99.9,-100.00,WNW,303,9.0,19.0,-999,-99.99,,,-99.99,,2013-01-10 18:33:00,
2013-01-10 10:44:00,40.0,-99.9,-100.00,WNW,303,9.0,19.0,-999,-99.99,,,-99.99,,2013-01-10 18:44:00,
2013-01-10 10:53:00,40.0,-99.9,-100.00,WNW,303,9.0,19.0,-999,-99.99,,,-99.99,,2013-01-10 18:53:00,
2013-01-10 11:03:00,39.0,-99.9,-100.00,West,277,7.0,12.0,-999,-99.99,,,-99.99,,2013-01-10 19:03:00,
2013-01-10 11:13:00,39.0,-99.9,-100.00,West,277,7.0,12.0,-999,-99.99,,,-99.99,,2013-01-10 19:13:00,
2013-01-10 11:33:00,39.0,-99.9,-100.00,West,264,10.0,17.0,-999,-99.99,,,-99.99,,2013-01-10 19:33:00,
2013-01-10 11:44:00,39.0,-99.9,-100.00,West,264,10.0,17.0,-999,-99.99,,,-99.99,,2013-01-10 19:44:00,
2013-01-10 11:54:00,39.0,-99.9,-100.00,West,264,10.0,17.0,-999,-99.99,,,-99.99,,2013-01-10 19:54:00,
2013-01-10 12:33:00,40.0,-99.9,-100.00,NW,309,13.0,21.0,-999,-99.99,,,-99.99,,2013-01-10 20:33:00,
2013-01-10 12:43:00,40.0,-99.9,-100.00,NW,309,13.0,21.0,-999,-99.99,,,-99.99,,2013-01-10 20:43:00,
2013-01-10 12:54:00,40.0,-99.9,-100.00,NW,309,13.0,21.0,-999,-99.99,,,-99.99,,2013-01-10 20:54:00,
2013-01-10 13:20:00,41.0,-99.9,-100.00,WNW,293,11.0,19.0,-999,-99.99,,,-99.99,,2013-01-10 21:20:00,
2013-01-10 13:33:00,40.0,-99.9,-100.00,WSW,246,7.0,14.0,-999,-99.99,,,-99.99,,2013-01-10 21:33:00,
2013-01-10 13:44:00,40.0,-99.9,-100.00,WSW,246,7.0,14.0,-999,-99.99,,,-99.99,,2013-01-10 21:44:00,
2013-01-10 13:54:00,40.0,-99.9,-100.00,WSW,246,7.0,14.0,-999,-99.99,,,-99.99,,2013-01-10 21:54:00,
2013-01-10 14:04:00,41.0,-99.9,-100.00,WNW,293,11.0,19.0,-999,-99.99,,,-99.99,,2013-01-10 22:04:00,
2013-01-10 14:13:00,41.0,-99.9,-100.00,WNW,293,11.0,19.0,-999,-99.99,,,-99.99,,2013-01-10 22:13:00,
2013-01-10 14:34:00,41.0,-99.9,-100.00,West,277,16.0,16.0,-999,-99.99,,,-99.99,,2013-01-10 22:34:00,
2013-01-10 14:44:00,41.0,-99.9,-100.00,West,277,16.0,16.0,-999,-99.99,,,-99.99,,2013-01-10 22:44:00,
2013-01-10 15:33:00,40.0,-99.9,-100.00,West,278,9.0,15.0,-999,-99.99,,,-99.99,,2013-01-10 23:33:00,
2013-01-10 15:43:00,40.0,-99.9,-100.00,West,278,9.0,15.0,-999,-99.99,,,-99.99,,2013-01-10 23:43:00,
2013-01-10 15:53:00,40.0,-99.9,-100.00,West,278,9.0,15.0,-999,-99.99,,,-99.99,,2013-01-10 23:53:00,
2013-01-10 16:23:00,41.0,-99.9,-100.00,West,278,12.0,23.0,-999,-99.99,,,-99.99,,2013-01-11 00:23:00,
2013-01-10 16:33:00,40.0,-99.9,-100.00,WSW,249,13.0,24.0,-999,-99.99,,,-99.99,,2013-01-11 00:33:00,
2013-01-10 16:43:00,40.0,-99.9,-100.00,WSW,249,13.0,24.0,-999,-99.99,,,-99.99,,2013-01-11 00:43:00,
2013-01-10 17:03:00,40.0,-99.9,-100.00,WNW,289,10.0,15.0,-999,-99.99,,,-99.99,,2013-01-11 01:03:00,
2013-01-10 17:13:00,40.0,-99.9,-100.00,WNW,289,10.0,15.0,-999,-99.99,,,-99.99,,2013-01-11 01:13:00,
2013-01-10 17:24:00,40.0,-99.9,-100.00,WNW,289,10.0,15.0,-999,-99.99,,,-99.99,,2013-01-11 01:24:00,
2013-01-10 17:34:00,38.0,-99.9,-100.00,WNW,283,11.0,16.0,-999,-99.99,,,-99.99,,2013-01-11 01:34:00,
2013-01-10 17:44:00,38.0,-99.9,-100.00,WNW,283,11.0,16.0,-999,-99.99,,,-99.99,,2013-01-11 01:44:00,
2013-01-10 17:53:00,38.0,-99.9,-100.00,WNW,283,11.0,16.0,-999,-99.99,,,-99.99,,2013-01-11 01:53:00,
2013-01-10 18:03:00,39.0,-99.9,-100.00,West,281,10.0,16.0,-999,-99.99,,,-99.99,,2013-01-11 02:03:00,
2013-01-10 18:13:00,39.0,-99.9,-100.00,West,281,10.0,16.0,-999,-99.99,,,-99.99,,2013-01-11 02:13:00,
2013-01-10 18:24:00,39.0,-99.9,-100.00,West,281,10.0,16.0,-999,-99.99,,,-99.99,,2013-01-11 02:24:00,
2013-01-10 18:34:00,39.0,-99.9,-100.00,West,270,10.0,16.0,-999,-99.99,,,-99.99,,2013-01-11 02:34:00,
2013-01-10 18:44:00,39.0,-99.9,-100.00,West,270,10.0,16.0,-999,-99.99,,,-99.99,,2013-01-11 02:44:00,
2013-01-10 18:54:00,39.0,-99.9,-100.00,West,270,10.0,16.0,-999,-99.99,,,-99.99,,2013-01-11 02:54:00,
2013-01-10 19:34:00,37.0,-99.9,-100.00,WSW,256,10.0,21.0,-999,-99.99,,,-99.99,,2013-01-11 03:34:00,
2013-01-10 19:43:00,37.0,-99.9,-100.00,WSW,256,10.0,21.0,-999,-99.99,,,-99.99,,2013-01-11 03:43:00,
2013-01-10 19:53:00,37.0,-99.9,-100.00,WSW,256,10.0,21.0,-999,-99.99,,,-99.99,,2013-01-11 03:53:00,
2013-01-10 20:03:00,38.0,-99.9,-100.00,WSW,250,13.0,19.0,-999,-99.99,,,-99.99,,2013-01-11 04:03:00,
2013-01-10 20:12:00,38.0,-99.9,-100.00,WSW,250,13.0,19.0,-999,-99.99,,,-99.99,,2013-01-11 04:12:00,
2013-01-10 20:33:00,39.0,-99.9,-100.00,WNW,295,5.0,13.0,-999,-99.99,,,-99.99,,2013-01-11 04:33:00,
2013-01-10 20:43:00,39.0,-99.9,-100.00,WNW,295,5.0,13.0,-999,-99.99,,,-99.99,,2013-01-11 04:43:00,
2013-01-10 20:53:00,39.0,-99.9,-100.00,WNW,295,5.0,13.0,-999,-99.99,,,-99.99,,2013-01-11 04:53:00,
2013-01-10 21:33:00,36.0,-99.9,-100.00,West,272,10.0,18.0,-999,-99.99,,,-99.99,,2013-01-11 05:33:00,
2013-01-10 21:43:00,36.0,-99.9,-100.00,West,272,10.0,18.0,-999,-99.99,,,-99.99,,2013-01-11 05:43:00,
2013-01-10 21:53:00,36.0,-99.9,-100.00,West,272,10.0,18.0,-999,-99.99,,,-99.99,,2013-01-11 05:53:00,
2013-01-10 22:22:00,38.0,-99.9,-100.00,WNW,283,10.0,12.0,-999,-99.99,,,-99.99,,2013-01-11 06:22:00,
2013-01-10 22:33:00,38.0,-99.9,-100.00,West,272,12.0,15.0,-999,-99.99,,,-99.99,,2013-01-11 06:33:00,
2013-01-10 22:42:00,38.0,-99.9,-100.00,West,272,12.0,15.0,-999,-99.99,,,-99.99,,2013-01-11 06:42:00,
2013-01-10 22:52:00,38.0,-99.9,-100.00,West,272,12.0,15.0,-999,-99.99,,,-99.99,,2013-01-11 06:52:00,
2013-01-10 23:10:00,38.0,-99.9,-100.00,West,272,9.0,12.0,-999,-99.99,,,-99.99,,2013-01-11 07:10:00,
2013-01-10 23:32:00,36.0,-99.9,-100.00,WNW,291,6.0,14.0,-999,-99.99,,,-99.99,,2013-01-11 07:32:00,
2013-01-10 23:43:00,36.0,-99.9,-100.00,WNW,291,6.0,14.0,-999,-99.99,,,-99.99,,2013-01-11 07:43:00,
2013-01-10 23:53:00,38.0,-99.9,-100.00,West,272,9.0,12.0,-999,-99.99,,,-99.99,,2013-01-11 07:53:00,